Time;durP1;ratioP1;P1;durP2;ratioP2;P2;SDS_P1;SDS_P2;PMS_P1;PMS_P2;Temp;Humidity;BMP_temperature;BMP_pressure;BME280_temperature;BME280_humidity;BME280_pressure;Samples;Min_cycle;Max_cycle;Signal;HPM_P1;HPM_P2
2022/10/10 00:00:45;;;;;;;2.28;1.50;;;8.10;94.50;;;;;;5037752;28;20048;-68
2022/10/10 00:03:11;;;;;;;3.17;1.58;;;8.10;94.00;;;;;;5020931;28;20045;-68
2022/10/10 00:05:38;;;;;;;3.10;1.67;;;8.30;94.90;;;;;;5055325;28;20052;-68
2022/10/10 00:08:05;;;;;;;3.08;1.55;;;8.00;94.90;;;;;;5055182;28;20048;-67
2022/10/10 00:10:30;;;;;;;2.35;1.60;;;8.00;94.90;;;;;;5055396;28;20033;-67
2022/10/10 00:12:56;;;;;;;3.88;1.80;;;8.00;94.80;;;;;;5037354;28;20044;-67
2022/10/10 00:15:22;;;;;;;2.53;1.52;;;8.00;94.90;;;;;;5055237;28;20120;-67
2022/10/10 00:17:48;;;;;;;2.03;1.65;;;7.90;95.20;;;;;;5055315;28;20120;-68
2022/10/10 00:20:16;;;;;;;2.30;1.50;;;7.90;95.30;;;;;;5055165;28;20091;-67
2022/10/10 00:22:41;;;;;;;4.70;1.80;;;7.90;94.80;;;;;;5054033;28;20124;-67
2022/10/10 00:25:08;;;;;;;7.00;1.60;;;7.80;95.00;;;;;;5055157;28;20128;-67
2022/10/10 00:27:35;;;;;;;2.38;1.60;;;7.80;95.60;;;;;;5055100;28;20069;-69
2022/10/10 00:30:02;;;;;;;2.45;1.65;;;7.80;96.10;;;;;;5055020;28;20049;-67
2022/10/10 00:32:27;;;;;;;4.15;1.60;;;7.80;96.30;;;;;;5054731;28;20041;-67
2022/10/10 00:34:53;;;;;;;3.63;1.77;;;7.80;96.40;;;;;;5036764;28;20052;-67
2022/10/10 00:37:18;;;;;;;2.20;1.63;;;7.80;97.40;;;;;;5054920;28;20129;-67
2022/10/10 00:39:44;;;;;;;2.80;1.70;;;7.80;97.40;;;;;;5054890;28;20037;-68
2022/10/10 00:42:14;;;;;;;3.25;1.83;;;7.70;98.00;;;;;;5054522;28;20063;-67
2022/10/10 00:44:41;;;;;;;3.83;1.95;;;7.70;98.40;;;;;;5037226;28;20528;-67
2022/10/10 00:47:08;;;;;;;2.38;1.60;;;7.70;98.40;;;;;;5036694;28;20041;-67
2022/10/10 00:49:37;;;;;;;2.40;1.52;;;7.70;98.40;;;;;;5054539;28;20045;-67
2022/10/10 00:52:03;;;;;;;4.18;1.60;;;7.60;99.30;;;;;;5036604;28;20076;-67
2022/10/10 00:54:32;;;;;;;2.03;1.58;;;7.60;99.10;;;;;;5053428;28;20043;-67
2022/10/10 00:57:11;;;;;;;3.13;1.45;;;7.60;99.10;;;;;;5036424;28;20087;-69
2022/10/10 00:59:39;;;;;;;2.17;1.75;;;7.60;99.10;;;;;;5054582;28;20480;-68
2022/10/10 01:02:05;;;;;;;4.30;1.40;;;7.80;99.40;;;;;;5054221;28;20032;-67
2022/10/10 01:04:41;;;;;;;3.75;1.52;;;7.50;99.20;;;;;;5036377;28;20462;-67
2022/10/10 01:07:13;;;;;;;1.90;1.50;;;7.50;99.50;;;;;;5054296;28;20079;-67
2022/10/10 01:09:41;;;;;;;5.72;1.77;;;7.40;99.90;;;;;;5054319;28;20032;-67
2022/10/10 01:12:25;;;;;;;2.30;1.50;;;7.40;99.90;;;;;;5054245;28;20037;-67
2022/10/10 01:14:54;;;;;;;3.92;1.88;;;7.40;99.90;;;;;;5054255;28;20084;-67
2022/10/10 01:17:24;;;;;;;4.85;1.90;;;7.40;99.90;;;;;;5035970;28;20048;-67
2022/10/10 01:20:08;;;;;;;7.75;1.73;;;7.40;99.90;;;;;;5035978;28;20057;-67
2022/10/10 01:22:58;;;;;;;2.55;1.75;;;7.30;99.90;;;;;;5053930;28;20564;-67
2022/10/10 01:25:48;;;;;;;4.25;1.60;;;7.30;99.90;;;;;;5035643;28;20049;-67
2022/10/10 01:28:35;;;;;;;2.17;1.40;;;7.30;99.90;;;;;;5022280;28;20052;-68
2022/10/10 01:31:04;;;;;;;1.83;1.55;;;7.30;99.90;;;;;;5053795;28;20472;-67
2022/10/10 01:34:02;;;;;;;3.17;1.52;;;7.40;99.90;;;;;;5053332;28;20480;-67
2022/10/10 01:36:51;;;;;;;2.53;1.90;;;7.20;99.90;;;;;;5035459;28;20121;-67
2022/10/10 01:39:47;;;;;;;4.30;2.15;;;7.20;99.90;;;;;;5053587;28;20044;-67
2022/10/10 01:42:40;;;;;;;3.00;2.10;;;7.20;99.90;;;;;;5053259;28;20045;-64
2022/10/10 01:45:06;;;;;;;2.58;1.60;;;7.20;99.90;;;;;;5053622;28;20106;-67
2022/10/10 01:47:32;;;;;;;3.63;1.63;;;7.20;99.90;;;;;;5035677;28;20530;-67
2022/10/10 01:50:02;;;;;;;2.90;1.95;;;7.50;99.90;;;;;;5053578;28;20119;-66
2022/10/10 01:52:31;;;;;;;5.53;2.20;;;7.70;99.90;;;;;;5053426;28;20036;-67
2022/10/10 01:55:21;;;;;;;2.88;1.83;;;7.10;99.90;;;;;;5053378;28;20045;-67
2022/10/10 01:58:11;;;;;;;3.72;1.70;;;7.10;99.90;;;;;;5053344;28;20080;-67
2022/10/10 02:00:52;;;;;;;3.20;1.92;;;7.10;99.90;;;;;;5053589;28;20037;-66
2022/10/10 02:03:20;;;;;;;;;;;7.10;99.90;;;;;;5035948;28;20044;-67
2022/10/10 02:05:51;;;;;;;2.72;1.83;;;7.10;99.90;;;;;;5052446;28;19964;-66
2022/10/10 02:08:30;;;;;;;1.85;1.50;;;7.00;99.90;;;;;;5052830;28;20033;-67
2022/10/10 02:10:59;;;;;;;2.90;1.40;;;7.00;99.90;;;;;;5053188;28;20041;-67
2022/10/10 02:13:38;;;;;;;2.70;1.60;;;7.10;99.90;;;;;;5018541;28;20120;-67
2022/10/10 02:16:10;;;;;;;4.20;2.17;;;7.00;99.90;;;;;;5053126;28;20080;-67
2022/10/10 02:18:37;;;;;;;3.58;2.05;;;7.00;99.90;;;;;;5053120;28;20041;-67
2022/10/10 02:21:05;;;;;;;4.60;1.80;;;7.00;99.90;;;;;;5053076;28;20488;-67
2022/10/10 02:23:32;;;;;;;2.53;1.42;;;7.00;99.90;;;;;;5053053;28;20040;-68
2022/10/10 02:25:58;;;;;;;2.40;1.80;;;7.00;99.90;;;;;;5034926;28;20048;-67
2022/10/10 02:28:39;;;;;;;2.50;2.08;;;7.00;99.90;;;;;;5052982;28;20036;-68
2022/10/10 02:31:11;;;;;;;4.20;2.00;;;7.00;99.90;;;;;;5052716;28;20044;-67
2022/10/10 02:33:50;;;;;;;2.88;1.42;;;7.00;99.90;;;;;;5053043;28;20370;-67
2022/10/10 02:36:19;;;;;;;2.58;1.33;;;7.00;99.90;;;;;;5035015;28;20045;-67
2022/10/10 02:38:46;;;;;;;4.38;2.03;;;7.00;99.90;;;;;;5053013;28;20041;-67
2022/10/10 02:41:15;;;;;;;1.75;1.40;;;7.10;99.90;;;;;;5052520;28;20124;-67
2022/10/10 02:43:41;;;;;;;2.28;1.50;;;7.10;99.90;;;;;;5035245;28;20051;-67
2022/10/10 02:46:10;;;;;;;2.47;1.77;;;7.20;99.90;;;;;;5055303;28;20361;-67
2022/10/10 02:48:36;;;;;;;4.43;1.90;;;7.20;99.90;;;;;;5056913;28;20127;-67
2022/10/10 02:51:02;;;;;;;5.60;2.17;;;7.20;99.90;;;;;;5056905;28;20033;-67
2022/10/10 02:53:28;;;;;;;1.70;1.60;;;7.30;99.90;;;;;;5056664;28;20103;-67
2022/10/10 02:55:54;;;;;;;4.97;2.10;;;7.30;99.90;;;;;;5056490;28;20045;-67
2022/10/10 02:58:19;;;;;;;4.18;2.58;;;7.40;99.90;;;;;;5056808;28;20045;-67
2022/10/10 03:00:45;;;;;;;2.05;1.73;;;7.40;99.90;;;;;;5056685;28;20047;-67
2022/10/10 03:03:11;;;;;;;3.05;1.67;;;8.10;99.90;;;;;;5056688;28;20040;-67
2022/10/10 03:05:36;;;;;;;3.70;2.35;;;7.40;99.90;;;;;;5056252;28;20456;-67
2022/10/10 03:08:02;;;;;;;4.05;1.90;;;7.40;99.90;;;;;;5056250;28;20033;-67
2022/10/10 03:10:28;;;;;;;2.95;1.90;;;7.40;99.90;;;;;;5056590;28;20116;-66
2022/10/10 03:12:53;;;;;;;3.35;1.60;;;7.40;99.90;;;;;;5056465;28;20036;-67
2022/10/10 03:15:19;;;;;;;3.22;2.05;;;7.50;99.90;;;;;;5056309;28;20174;-68
2022/10/10 03:17:44;;;;;;;3.53;2.10;;;7.60;99.90;;;;;;5038321;28;20077;-67
2022/10/10 03:20:10;;;;;;;2.70;2.15;;;7.50;99.90;;;;;;5056075;28;20045;-67
2022/10/10 03:22:36;;;;;;;4.75;1.88;;;7.50;99.90;;;;;;5056275;28;20037;-67
2022/10/10 03:25:02;;;;;;;3.40;2.15;;;7.70;99.90;;;;;;5055861;28;20049;-67
2022/10/10 03:27:28;;;;;;;2.78;1.80;;;7.50;99.90;;;;;;5056230;28;20508;-67
2022/10/10 03:29:53;;;;;;;3.30;1.65;;;7.50;99.90;;;;;;5056273;28;20139;-67
2022/10/10 03:32:19;;;;;;;5.10;1.92;;;7.60;99.90;;;;;;5056005;28;20033;-67
2022/10/10 03:34:45;;;;;;;2.45;1.83;;;7.50;99.90;;;;;;5056050;28;20045;-66
2022/10/10 03:37:10;;;;;;;4.82;2.63;;;7.50;99.90;;;;;;5038199;28;20041;-67
2022/10/10 03:39:36;;;;;;;3.05;2.13;;;7.60;99.90;;;;;;5037712;28;20055;-67
2022/10/10 03:42:02;;;;;;;4.30;2.17;;;7.60;99.90;;;;;;5055565;28;20059;-67
2022/10/10 03:44:27;;;;;;;2.55;2.10;;;7.50;99.90;;;;;;5055922;28;20044;-67
2022/10/10 03:46:53;;;;;;;4.00;2.30;;;7.60;99.90;;;;;;5055875;28;20037;-67
2022/10/10 03:49:19;;;;;;;5.13;1.77;;;7.50;99.90;;;;;;5055753;28;20044;-67
2022/10/10 03:51:44;;;;;;;2.92;2.00;;;7.50;99.90;;;;;;5021125;28;20045;-68
2022/10/10 03:54:10;;;;;;;3.80;2.15;;;7.50;99.90;;;;;;5055702;28;20029;-67
2022/10/10 03:56:36;;;;;;;2.25;1.75;;;7.50;99.90;;;;;;5055422;28;20124;-67
2022/10/10 03:59:02;;;;;;;3.60;2.00;;;7.90;99.90;;;;;;5037521;28;20128;-67
2022/10/10 04:01:29;;;;;;;5.40;2.00;;;7.50;99.90;;;;;;5055598;28;20112;-66
2022/10/10 04:03:55;;;;;;;3.30;2.08;;;7.50;99.90;;;;;;5037486;28;20411;-67
2022/10/10 04:06:21;;;;;;;4.35;1.90;;;7.50;99.90;;;;;;5055206;28;20029;-68
2022/10/10 04:08:47;;;;;;;2.83;1.92;;;7.50;99.90;;;;;;5055431;28;20033;-67
2022/10/10 04:11:12;;;;;;;1.90;1.75;;;8.30;99.90;;;;;;5055408;28;20032;-67
2022/10/10 04:13:38;;;;;;;3.00;1.92;;;7.50;99.90;;;;;;5054972;28;20052;-67
2022/10/10 04:16:04;;;;;;;3.95;1.77;;;7.50;99.90;;;;;;5055163;28;20037;-66
2022/10/10 04:18:30;;;;;;;2.92;1.95;;;7.50;99.90;;;;;;5055205;28;20119;-67
2022/10/10 04:20:56;;;;;;;2.63;1.85;;;7.50;99.90;;;;;;5037318;28;20087;-66
2022/10/10 04:23:21;;;;;;;4.70;2.58;;;7.50;99.90;;;;;;5055209;28;20084;-67
2022/10/10 04:25:51;;;;;;;4.82;2.22;;;7.50;99.90;;;;;;5055078;28;20047;-67
2022/10/10 04:28:18;;;;;;;3.20;2.22;;;7.50;99.90;;;;;;5055059;28;20064;-68
2022/10/10 04:30:43;;;;;;;5.07;2.38;;;8.40;99.90;;;;;;5054817;28;20099;-67
2022/10/10 04:33:09;;;;;;;3.17;1.67;;;7.40;99.90;;;;;;5036863;28;20647;-66
2022/10/10 04:35:35;;;;;;;2.90;2.00;;;7.40;99.90;;;;;;5020420;28;20052;-67
2022/10/10 04:38:00;;;;;;;3.08;2.10;;;7.40;99.90;;;;;;5054607;28;20032;-66
2022/10/10 04:40:26;;;;;;;3.97;2.10;;;7.40;99.90;;;;;;5054839;28;20126;-67
2022/10/10 04:42:53;;;;;;;2.08;1.65;;;7.40;99.90;;;;;;5054360;28;20052;-70
2022/10/10 04:45:19;;;;;;;6.47;2.22;;;7.70;99.90;;;;;;5036674;28;20175;-68
2022/10/10 04:47:44;;;;;;;3.30;2.10;;;7.60;99.90;;;;;;5036633;28;20119;-66
2022/10/10 04:50:10;;;;;;;3.20;2.15;;;8.10;99.90;;;;;;5036723;28;20045;-67
2022/10/10 04:52:35;;;;;;;3.95;2.03;;;7.60;99.90;;;;;;5054353;28;20400;-67
2022/10/10 04:55:01;;;;;;;3.72;2.25;;;7.30;99.90;;;;;;5054572;28;20131;-66
2022/10/10 04:57:27;;;;;;;3.40;2.35;;;7.30;99.90;;;;;;5054565;28;20114;-66
2022/10/10 04:59:52;;;;;;;3.63;2.05;;;7.90;99.90;;;;;;5036459;28;20454;-66
2022/10/10 05:02:18;;;;;;;4.60;2.33;;;7.30;99.90;;;;;;5054131;28;20484;-67
2022/10/10 05:04:44;;;;;;;3.85;2.40;;;7.30;99.90;;;;;;5054365;28;20037;-67
2022/10/10 05:07:09;;;;;;;4.70;2.17;;;7.20;99.90;;;;;;5036377;28;20051;-67
2022/10/10 05:09:35;;;;;;;5.10;2.45;;;7.30;99.90;;;;;;5053799;28;20045;-67
2022/10/10 05:12:01;;;;;;;6.30;2.15;;;8.10;99.90;;;;;;5036360;28;20040;-67
2022/10/10 05:14:26;;;;;;;3.47;2.00;;;7.20;99.90;;;;;;5053946;28;20507;-68
2022/10/10 05:16:52;;;;;;;3.40;2.28;;;7.20;99.90;;;;;;5054082;28;20090;-67
2022/10/10 05:19:18;;;;;;;3.75;2.30;;;7.70;99.90;;;;;;5053748;28;20029;-66
2022/10/10 05:21:43;;;;;;;2.85;2.00;;;7.20;99.90;;;;;;5036234;28;20041;-68
2022/10/10 05:24:09;;;;;;;8.45;2.60;;;7.20;99.90;;;;;;5054002;28;20403;-67
2022/10/10 05:26:35;;;;;;;3.05;2.40;;;7.20;99.90;;;;;;5053895;28;20041;-67
2022/10/10 05:29:00;;;;;;;7.03;2.40;;;7.50;99.90;;;;;;5053939;28;20040;-68
2022/10/10 05:31:27;;;;;;;5.15;2.35;;;7.20;99.90;;;;;;5053869;28;20119;-65
2022/10/10 05:33:53;;;;;;;4.45;2.30;;;7.20;99.90;;;;;;5053585;28;20099;-66
2022/10/10 05:36:19;;;;;;;6.20;2.40;;;7.10;99.90;;;;;;5053906;28;20044;-65
2022/10/10 05:38:45;;;;;;;5.50;2.35;;;7.20;99.90;;;;;;5053382;28;20037;-66
2022/10/10 05:41:11;;;;;;;4.75;2.60;;;7.10;99.90;;;;;;5035761;28;20048;-64
2022/10/10 05:43:37;;;;;;;3.97;2.25;;;7.10;99.90;;;;;;5035625;28;20107;-65
2022/10/10 05:46:04;;;;;;;4.63;2.80;;;7.10;99.90;;;;;;5035349;28;20041;-62
2022/10/10 05:48:30;;;;;;;3.55;2.33;;;7.10;99.90;;;;;;5035707;28;20098;-65
2022/10/10 05:50:58;;;;;;;3.83;2.20;;;7.10;99.90;;;;;;5053543;28;20380;-66
2022/10/10 05:53:24;;;;;;;3.80;2.25;;;7.20;99.90;;;;;;5053436;28;20090;-70
2022/10/10 05:55:50;;;;;;;4.55;2.70;;;7.30;99.90;;;;;;5053466;28;20053;-66
2022/10/10 05:58:16;;;;;;;6.75;2.35;;;7.20;99.90;;;;;;5053351;28;20377;-67
2022/10/10 06:00:43;;;;;;;3.70;2.00;;;7.10;99.90;;;;;;5035188;28;20404;-65
2022/10/10 06:03:12;;;;;;;4.75;2.42;;;7.90;99.90;;;;;;5053190;28;20068;-65
2022/10/10 06:05:43;;;;;;;6.50;2.67;;;7.20;99.90;;;;;;5035098;28;20056;-67
2022/10/10 06:08:09;;;;;;;7.40;2.53;;;7.20;99.90;;;;;;5053101;28;20044;-65
2022/10/10 06:10:37;;;;;;;4.10;2.13;;;7.20;99.90;;;;;;5052997;28;20045;-66
2022/10/10 06:13:03;;;;;;;6.47;2.85;;;7.20;99.90;;;;;;5052901;28;20040;-66
2022/10/10 06:15:29;;;;;;;4.00;2.42;;;7.20;99.90;;;;;;5053069;28;20037;-67
2022/10/10 06:17:54;;;;;;;3.85;2.35;;;7.20;99.90;;;;;;5053141;28;20033;-66
2022/10/10 06:20:20;;;;;;;4.05;2.60;;;7.20;99.90;;;;;;5053141;28;20123;-68
2022/10/10 06:22:46;;;;;;;3.65;2.22;;;7.20;99.90;;;;;;5053086;28;20037;-66
2022/10/10 06:25:11;;;;;;;4.90;2.13;;;7.50;99.90;;;;;;5052882;28;20068;-66
2022/10/10 06:27:37;;;;;;;5.45;2.38;;;7.30;99.90;;;;;;5052853;28;20025;-66
2022/10/10 06:30:04;;;;;;;4.85;2.70;;;8.10;99.90;;;;;;5052877;28;20068;-66
2022/10/10 06:32:29;;;;;;;5.70;2.15;;;7.40;99.90;;;;;;5052601;28;20040;-65
2022/10/10 06:34:55;;;;;;;4.18;2.65;;;7.40;99.90;;;;;;5052882;28;20037;-66
2022/10/10 06:37:21;;;;;;;7.22;3.05;;;7.50;99.90;;;;;;5052619;28;20044;-66
2022/10/10 06:39:46;;;;;;;5.35;2.50;;;7.60;99.90;;;;;;5052544;28;20041;-66
2022/10/10 06:42:12;;;;;;;3.42;2.45;;;7.50;99.90;;;;;;5052296;28;20053;-66
2022/10/10 06:44:38;;;;;;;5.20;2.65;;;7.60;99.90;;;;;;5052641;28;20049;-65
2022/10/10 06:47:04;;;;;;;4.15;2.40;;;7.60;99.90;;;;;;5034607;28;20484;-66
2022/10/10 06:49:29;;;;;;;6.30;2.80;;;7.70;99.90;;;;;;5052711;28;20400;-65
2022/10/10 06:51:55;;;;;;;6.47;2.42;;;7.70;99.90;;;;;;5034579;28;20672;-65
2022/10/10 06:54:21;;;;;;;11.60;2.83;;;7.80;99.90;;;;;;5052609;28;20052;-65
2022/10/10 06:56:46;;;;;;;5.90;2.35;;;7.90;99.90;;;;;;5052682;28;20491;-66
2022/10/10 06:59:12;;;;;;;4.22;2.38;;;7.90;99.90;;;;;;5034503;28;20073;-67
2022/10/10 07:01:38;;;;;;;3.75;2.20;;;8.00;99.90;;;;;;5052502;28;20124;-66
2022/10/10 07:04:04;;;;;;;5.03;2.10;;;8.10;99.90;;;;;;5052436;28;20049;-66
2022/10/10 07:06:30;;;;;;;4.88;2.47;;;8.20;99.90;;;;;;5052575;28;20049;-65
2022/10/10 07:08:57;;;;;;;8.82;2.22;;;8.30;99.90;;;;;;5052574;28;20071;-65
2022/10/10 07:11:24;;;;;;;5.78;2.30;;;8.60;99.90;;;;;;5052258;28;20045;-66
2022/10/10 07:13:52;;;;;;;3.10;2.13;;;8.50;99.90;;;;;;5052559;28;20037;-66
2022/10/10 07:16:18;;;;;;;4.78;2.63;;;8.60;99.50;;;;;;5052158;28;20041;-66
2022/10/10 07:18:44;;;;;;;6.28;2.63;;;8.80;98.90;;;;;;5052395;28;20047;-65
2022/10/10 07:21:09;;;;;;;3.60;2.50;;;8.90;98.60;;;;;;5052075;28;20071;-65
2022/10/10 07:23:36;;;;;;;4.75;2.70;;;9.10;97.90;;;;;;5052090;28;20052;-65
2022/10/10 07:26:09;;;;;;;4.75;2.42;;;9.20;97.30;;;;;;5034639;28;20045;-65
2022/10/10 07:28:35;;;;;;;3.17;2.20;;;9.20;97.00;;;;;;5034371;28;20124;-65
2022/10/10 07:31:04;;;;;;;3.70;2.97;;;9.30;96.50;;;;;;5053069;28;20077;-65
2022/10/10 07:33:32;;;;;;;4.75;2.67;;;9.30;96.50;;;;;;5037835;28;20041;-65
2022/10/10 07:35:58;;;;;;;6.15;2.88;;;9.40;96.70;;;;;;5056098;28;20059;-66
2022/10/10 07:38:25;;;;;;;4.03;2.40;;;9.40;96.60;;;;;;5055690;28;20037;-65
2022/10/10 07:40:50;;;;;;;3.25;2.30;;;9.50;96.10;;;;;;5055588;28;20123;-65
2022/10/10 07:43:16;;;;;;;5.80;2.75;;;9.60;95.80;;;;;;5055898;28;20124;-65
2022/10/10 07:45:42;;;;;;;4.13;2.70;;;9.70;95.30;;;;;;5055897;28;20036;-65
2022/10/10 07:48:08;;;;;;;4.75;2.70;;;9.70;95.60;;;;;;5055795;28;20117;-66
2022/10/10 07:50:33;;;;;;;3.63;2.38;;;9.80;95.30;;;;;;5055903;28;20559;-65
2022/10/10 07:52:59;;;;;;;5.55;2.67;;;9.90;95.10;;;;;;5055501;28;20102;-65
2022/10/10 07:55:25;;;;;;;4.68;2.50;;;9.90;94.90;;;;;;5055676;28;20419;-65
2022/10/10 07:57:50;;;;;;;5.45;2.97;;;10.50;95.20;;;;;;5055405;28;20037;-65
2022/10/10 08:00:17;;;;;;;4.18;2.78;;;10.00;94.90;;;;;;5055298;28;20041;-65
2022/10/10 08:02:42;;;;;;;3.75;2.55;;;10.00;95.10;;;;;;5055600;28;20025;-65
2022/10/10 08:05:08;;;;;;;4.20;2.42;;;10.30;95.00;;;;;;5037476;28;20044;-65
2022/10/10 08:07:34;;;;;;;4.32;2.60;;;10.20;95.30;;;;;;5037514;28;20045;-65
2022/10/10 08:10:01;;;;;;;6.38;2.63;;;10.20;94.60;;;;;;5055239;28;20051;-65
2022/10/10 08:12:27;;;;;;;4.38;2.58;;;10.40;95.10;;;;;;5055074;28;20037;-66
2022/10/10 08:14:53;;;;;;;4.28;2.22;;;10.30;94.10;;;;;;5055304;28;20577;-67
2022/10/10 08:17:19;;;;;;;7.28;2.83;;;10.60;93.50;;;;;;5055086;28;20091;-65
2022/10/10 08:19:44;;;;;;;5.13;2.33;;;10.70;93.40;;;;;;5055263;28;20037;-65
2022/10/10 08:22:11;;;;;;;4.93;2.83;;;10.70;92.80;;;;;;5037151;28;20495;-65
2022/10/10 08:24:37;;;;;;;4.22;2.55;;;10.70;91.70;;;;;;5037324;28;20049;-65
2022/10/10 08:27:02;;;;;;;4.07;2.40;;;10.70;90.60;;;;;;5055112;28;20041;-65
2022/10/10 08:29:28;;;;;;;4.40;2.90;;;10.70;91.30;;;;;;5055084;28;20408;-66
2022/10/10 08:31:53;;;;;;;8.65;2.97;;;10.70;92.30;;;;;;5055004;28;20095;-66
2022/10/10 08:34:19;;;;;;;4.75;2.97;;;10.80;92.50;;;;;;5036867;28;20527;-65
2022/10/10 08:36:45;;;;;;;5.07;2.42;;;10.80;91.00;;;;;;5055096;28;20033;-66
2022/10/10 08:39:11;;;;;;;4.78;2.72;;;10.90;91.80;;;;;;5055006;28;20041;-65
2022/10/10 08:41:49;;;;;;;4.50;2.58;;;10.90;91.40;;;;;;5054594;28;20061;-65
2022/10/10 08:44:30;;;;;;;3.42;2.42;;;10.90;91.50;;;;;;5053444;28;20041;-67
2022/10/10 08:46:57;;;;;;;4.53;2.60;;;10.90;91.90;;;;;;5036688;28;20045;-66
2022/10/10 08:49:43;;;;;;;3.55;2.58;;;11.00;92.00;;;;;;5054743;28;20072;-66
2022/10/10 08:52:32;;;;;;;4.38;2.80;;;11.10;91.50;;;;;;5054376;28;20044;-65
2022/10/10 08:55:01;;;;;;;4.45;2.28;;;11.10;91.50;;;;;;5054590;28;20088;-66
2022/10/10 08:57:32;;;;;;;7.95;3.35;;;11.20;92.30;;;;;;5054617;28;20119;-65
2022/10/10 09:00:06;;;;;;;3.75;2.45;;;11.30;92.10;;;;;;5036381;28;20049;-65
2022/10/10 09:02:38;;;;;;;6.88;2.80;;;11.30;91.30;;;;;;5054314;28;20040;-65
2022/10/10 09:05:05;;;;;;;8.52;3.72;;;11.50;91.40;;;;;;5054092;28;20555;-65
2022/10/10 09:07:33;;;;;;;7.15;3.28;;;11.50;90.50;;;;;;5054002;28;20037;-65
2022/10/10 09:10:29;;;;;;;5.65;2.47;;;11.60;88.00;;;;;;5054262;28;20416;-65
2022/10/10 09:13:06;;;;;;;4.40;2.47;;;11.70;89.00;;;;;;5053974;28;20048;-65
2022/10/10 09:15:55;;;;;;;7.60;2.90;;;11.80;89.40;;;;;;5054106;28;20158;-65
2022/10/10 09:18:37;;;;;;;4.97;2.67;;;11.90;88.30;;;;;;5019500;28;20045;-65
2022/10/10 09:21:41;;;;;;;6.35;3.00;;;12.00;82.90;;;;;;5053785;28;20044;-66
2022/10/10 09:24:16;;;;;;;6.07;2.83;;;12.00;82.80;;;;;;5050517;28;20127;-65
2022/10/10 09:27:01;;;;;;;5.75;3.08;;;12.10;82.50;;;;;;5053896;28;20129;-65
2022/10/10 09:29:38;;;;;;;4.68;3.20;;;12.20;80.20;;;;;;5035729;28;20041;-65
2022/10/10 09:32:13;;;;;;;6.15;3.22;;;12.20;78.80;;;;;;5019632;28;20516;-65
2022/10/10 09:34:58;;;;;;;5.68;2.55;;;12.30;81.80;;;;;;5035967;28;20485;-65
2022/10/10 09:37:31;;;;;;;4.18;2.80;;;12.40;81.60;;;;;;5053765;28;20445;-65
2022/10/10 09:40:03;;;;;;;4.53;2.90;;;12.40;79.00;;;;;;5053732;28;20056;-65
2022/10/10 09:42:34;;;;;;;5.78;3.05;;;12.60;77.80;;;;;;5053322;28;20091;-65
2022/10/10 09:45:00;;;;;;;6.45;3.05;;;12.60;79.90;;;;;;5053643;28;20450;-65
2022/10/10 09:47:27;;;;;;;7.85;3.38;;;12.70;78.70;;;;;;5053683;28;20139;-66
2022/10/10 09:49:53;;;;;;;5.25;3.53;;;12.80;74.70;;;;;;5053498;28;20110;-66
2022/10/10 09:52:26;;;;;;;6.00;3.35;;;12.90;73.60;;;;;;5053491;28;20550;-67
2022/10/10 09:55:05;;;;;;;3.60;2.35;;;13.00;70.80;;;;;;5035265;28;20072;-66
2022/10/10 09:57:41;;;;;;;4.75;2.97;;;13.20;69.20;;;;;;5035632;28;20053;-66
2022/10/10 10:00:31;;;;;;;5.97;3.28;;;13.30;70.10;;;;;;5053455;28;20045;-65
2022/10/10 10:03:18;;;;;;;5.15;3.10;;;13.40;61.70;;;;;;5053094;28;20043;-65
2022/10/10 10:05:59;;;;;;;6.05;2.97;;;13.50;64.10;;;;;;5052876;28;20045;-65
2022/10/10 10:08:34;;;;;;;5.53;2.80;;;13.60;67.50;;;;;;5035443;28;20460;-66
2022/10/10 10:11:00;;;;;;;4.20;2.42;;;13.60;66.90;;;;;;5035482;28;20474;-65
2022/10/10 10:13:33;;;;;;;5.13;3.40;;;13.60;62.50;;;;;;5053175;28;20037;-66
2022/10/10 10:16:09;;;;;;;5.65;3.20;;;13.60;62.20;;;;;;5053226;28;20032;-65
2022/10/10 10:18:39;;;;;;;5.07;3.00;;;13.60;64.30;;;;;;5053128;28;20041;-65
2022/10/10 10:21:09;;;;;;;4.10;2.50;;;13.70;65.70;;;;;;5052884;28;20053;-64
2022/10/10 10:23:48;;;;;;;4.85;2.83;;;13.70;68.20;;;;;;5053072;28;20086;-65
2022/10/10 10:26:21;;;;;;;4.38;2.88;;;13.70;63.60;;;;;;5052717;28;20400;-65
2022/10/10 10:28:49;;;;;;;6.03;3.22;;;13.80;66.70;;;;;;5052779;28;20044;-64
2022/10/10 10:31:38;;;;;;;3.28;2.53;;;13.80;69.40;;;;;;5052987;28;20033;-65
2022/10/10 10:34:42;;;;;;;5.97;3.00;;;13.90;67.50;;;;;;5052973;28;20040;-64
2022/10/10 10:37:25;;;;;;;6.25;3.40;;;14.00;65.00;;;;;;5053016;28;20041;-65
2022/10/10 10:40:21;;;;;;;4.78;2.97;;;14.00;65.20;;;;;;5052972;28;20037;-65
2022/10/10 10:43:13;;;;;;;8.63;2.97;;;14.00;63.30;;;;;;5052478;28;20057;-64
2022/10/10 10:46:16;;;;;;;7.47;3.40;;;14.10;62.60;;;;;;5052786;28;20049;-65
2022/10/10 10:48:54;;;;;;;4.80;2.42;;;14.20;65.90;;;;;;5052504;28;20033;-64
2022/10/10 10:51:48;;;;;;;6.03;2.83;;;14.50;61.60;;;;;;5052693;28;20036;-66
2022/10/10 10:54:16;;;;;;;7.78;3.13;;;14.60;62.80;;;;;;5034478;28;20041;-65
2022/10/10 10:56:50;;;;;;;3.67;2.22;;;14.80;61.00;;;;;;5034362;28;20102;-66
2022/10/10 11:00:01;;;;;;;11.10;2.97;;;15.00;55.70;;;;;;5052573;28;20407;-65
2022/10/10 11:02:48;;;;;;;5.85;2.90;;;15.10;38.10;;;;;;5052580;28;20507;-67
2022/10/10 11:05:33;;;;;;;4.32;2.90;;;15.20;44.20;;;;;;5034482;28;20408;-65
2022/10/10 11:08:18;;;;;;;4.05;2.40;;;15.30;38.70;;;;;;5056359;28;20452;-66
2022/10/10 11:11:09;;;;;;;5.53;2.30;;;15.30;25.10;;;;;;5038226;28;20095;-65
2022/10/10 11:13:39;;;;;;;4.85;2.47;;;15.40;31.90;;;;;;5056107;28;20040;-66
2022/10/10 11:16:28;;;;;;;4.13;2.50;;;15.50;16.00;;;;;;5056049;28;20442;-66
2022/10/10 11:19:15;;;;;;;4.18;2.28;;;15.60;28.80;;;;;;5055920;28;20116;-66
2022/10/10 11:21:49;;;;;;;5.68;2.55;;;15.60;24.50;;;;;;5056180;28;20484;-66
2022/10/10 11:24:40;;;;;;;2.92;2.17;;;15.60;26.30;;;;;;5055800;28;20073;-66
2022/10/10 11:27:19;;;;;;;5.43;2.60;;;15.50;19.80;;;;;;5055629;28;20080;-66
2022/10/10 11:30:04;;;;;;;3.50;2.15;;;15.50;8.60;;;;;;5037937;28;20112;-66
2022/10/10 11:32:37;;;;;;;9.77;3.10;;;15.40;11.20;;;;;;5056005;28;20052;-66
2022/10/10 11:35:41;;;;;;;5.10;2.45;;;15.30;12.60;;;;;;5037804;28;20103;-66
2022/10/10 11:38:51;;;;;;;2.95;1.85;;;15.10;20.50;;;;;;5055888;28;20435;-66
2022/10/10 11:41:29;;;;;;;4.57;2.78;;;15.00;24.20;;;;;;4993972;28;20058;-66
2022/10/10 11:44:13;;;;;;;5.20;2.25;;;14.90;21.60;;;;;;4994074;28;20061;-66
2022/10/10 11:47:09;;;;;;;6.28;2.28;;;14.80;38.60;;;;;;5035266;28;20143;-66
2022/10/10 11:49:41;;;;;;;3.85;2.40;;;14.70;34.00;;;;;;5050198;28;20053;-66
2022/10/10 11:52:21;;;;;;;3.97;2.40;;;14.60;39.30;;;;;;5055722;28;20037;-66
2022/10/10 11:54:58;;;;;;;5.22;2.55;;;14.60;47.70;;;;;;5055496;28;20040;-66
2022/10/10 11:57:46;;;;;;;4.90;2.30;;;14.50;48.00;;;;;;5055202;28;20037;-66
2022/10/10 12:00:17;;;;;;;4.25;1.98;;;14.40;49.00;;;;;;5055410;28;20055;-66
2022/10/10 12:02:44;;;;;;;3.88;2.35;;;14.40;51.10;;;;;;5055408;28;20488;-66
2022/10/10 12:05:28;;;;;;;4.05;1.92;;;14.30;53.90;;;;;;5054930;28;20044;-66
2022/10/10 12:07:56;;;;;;;5.18;2.65;;;14.20;60.70;;;;;;5054641;28;20422;-66
2022/10/10 12:10:47;;;;;;;8.85;2.42;;;14.20;65.30;;;;;;5054408;28;20060;-66
2022/10/10 12:13:25;;;;;;;4.80;2.83;;;14.10;73.80;;;;;;5053912;28;20103;-67
2022/10/10 12:15:55;;;;;;;4.63;2.47;;;14.10;80.70;;;;;;5053871;28;20095;-66
2022/10/10 12:18:29;;;;;;;5.40;2.72;;;14.00;82.90;;;;;;5054110;28;20099;-66
2022/10/10 12:21:05;;;;;;;4.60;2.70;;;14.00;88.00;;;;;;5036458;28;20045;-66
2022/10/10 12:23:32;;;;;;;5.95;2.75;;;14.00;90.00;;;;;;5036117;28;20045;-69
2022/10/10 12:25:58;;;;;;;5.32;2.92;;;14.00;89.50;;;;;;5053816;28;20488;-65
2022/10/10 12:28:48;;;;;;;4.75;2.28;;;14.00;89.60;;;;;;5053733;28;20041;-66
2022/10/10 12:31:14;;;;;;;4.60;2.70;;;14.00;90.70;;;;;;5043092;28;20051;-65
2022/10/10 12:33:42;;;;;;;3.88;2.75;;;14.00;90.60;;;;;;5053989;28;20366;-66
2022/10/10 12:36:20;;;;;;;4.05;2.50;;;14.00;90.50;;;;;;5035998;28;20435;-66
2022/10/10 12:39:01;;;;;;;4.97;2.45;;;14.00;90.60;;;;;;5053942;28;20052;-66
2022/10/10 12:41:42;;;;;;;6.95;3.30;;;13.90;91.60;;;;;;5035803;28;20147;-66
2022/10/10 12:44:13;;;;;;;3.95;2.42;;;14.00;90.80;;;;;;5053775;28;20045;-66
2022/10/10 12:46:41;;;;;;;5.45;3.20;;;14.00;90.30;;;;;;5053600;28;20451;-66
2022/10/10 12:49:22;;;;;;;4.15;2.97;;;14.00;90.40;;;;;;5053369;28;20039;-66
2022/10/10 12:52:22;;;;;;;6.25;2.92;;;14.00;91.00;;;;;;5053581;28;20397;-66
2022/10/10 12:54:50;;;;;;;7.03;2.90;;;14.00;91.50;;;;;;5015523;28;20115;-66
2022/10/10 12:57:42;;;;;;;7.50;3.33;;;14.00;92.30;;;;;;5053500;28;20045;-66
2022/10/10 13:00:17;;;;;;;5.05;2.80;;;14.00;93.10;;;;;;5053491;28;20045;-67
2022/10/10 13:02:51;;;;;;;4.68;2.85;;;14.00;94.20;;;;;;5035303;28;20052;-64
2022/10/10 13:05:19;;;;;;;6.15;2.60;;;13.90;97.50;;;;;;5053282;28;20049;-66
2022/10/10 13:07:47;;;;;;;6.93;3.78;;;13.90;96.80;;;;;;5053329;28;20041;-66
2022/10/10 13:10:23;;;;;;;5.38;3.35;;;14.00;97.00;;;;;;5053256;28;20041;-66
2022/10/10 13:12:59;;;;;;;9.80;3.13;;;13.90;98.20;;;;;;5052982;28;20040;-67
2022/10/10 13:15:25;;;;;;;5.40;3.33;;;13.90;99.40;;;;;;5053144;28;20128;-67